Paauilo, Hawaii
Current Conditions -  °F | °C
As of 10:56 PM on Thursday 23 Oct 2014 (Local Time) from PHSF Reporting Station
Clear Clear  
Wind Chill: 51°   Ceiling: Unl
Heat Index: 51°   Visibility: 10mi
Dew Point: 47°   Wind: 5mph
Humidity: 87%   Direction: 120°ESE
Pressure: 30.37"   Gusts: NA
Location:  20.03°N, 155.36°W
Report Text: PHSF 240856Z AUTO 12004KT 10SM CLR 11/09 A3037 RMK AO2 SLP171 T01060085 56005 $
Loading
Personal Weather Stations






























Interactive Weather Map
Tropical Storm Tracking
New forecast layout! Learn more

10-Day Weather Forecast

Advertisements
Track Severe Weather on mobile